sensor_id;sensor_type;location;lat;lon;timestamp;pressure;altitude;pressure_sealevel;temperature
67515;BMP280;60646;55.802;37.032;2022-11-30T00:02:23;102220.34;;;-4.94
67515;BMP280;60646;55.802;37.032;2022-11-30T00:04:48;102209.75;;;-4.97
67515;BMP280;60646;55.802;37.032;2022-11-30T00:07:14;102224.94;;;-4.91
67515;BMP280;60646;55.802;37.032;2022-11-30T00:09:40;102224.00;;;-4.95
67515;BMP280;60646;55.802;37.032;2022-11-30T00:12:06;102210.19;;;-5.04
67515;BMP280;60646;55.802;37.032;2022-11-30T00:14:31;102228.44;;;-4.95
67515;BMP280;60646;55.802;37.032;2022-11-30T00:16:57;102221.25;;;-4.98
67515;BMP280;60646;55.802;37.032;2022-11-30T00:19:23;102219.66;;;-5.08
67515;BMP280;60646;55.802;37.032;2022-11-30T00:21:49;102194.38;;;-5.25
67515;BMP280;60646;55.802;37.032;2022-11-30T00:24:15;102213.09;;;-5.14
67515;BMP280;60646;55.802;37.032;2022-11-30T00:26:40;102213.38;;;-5.16
67515;BMP280;60646;55.802;37.032;2022-11-30T00:29:06;102211.06;;;-5.17
67515;BMP280;60646;55.802;37.032;2022-11-30T00:31:32;102217.22;;;-5.13
67515;BMP280;60646;55.802;37.032;2022-11-30T00:33:58;102215.69;;;-5.14
67515;BMP280;60646;55.802;37.032;2022-11-30T00:36:42;102221.66;;;-5.14
67515;BMP280;60646;55.802;37.032;2022-11-30T00:39:08;102211.06;;;-5.17
67515;BMP280;60646;55.802;37.032;2022-11-30T00:41:33;102210.16;;;-5.21
67515;BMP280;60646;55.802;37.032;2022-11-30T00:43:59;102220.28;;;-5.11
67515;BMP280;60646;55.802;37.032;2022-11-30T00:46:25;102201.69;;;-5.27
67515;BMP280;60646;55.802;37.032;2022-11-30T00:48:50;102191.72;;;-5.33
67515;BMP280;60646;55.802;37.032;2022-11-30T00:51:16;102201.91;;;-5.23
67515;BMP280;60646;55.802;37.032;2022-11-30T00:53:43;102197.25;;;-5.26
67515;BMP280;60646;55.802;37.032;2022-11-30T00:56:09;102208.03;;;-5.19
67515;BMP280;60646;55.802;37.032;2022-11-30T00:58:35;102186.53;;;-5.33
67515;BMP280;60646;55.802;37.032;2022-11-30T01:01:01;102181.75;;;-5.40
67515;BMP280;60646;55.802;37.032;2022-11-30T01:03:27;102180.97;;;-5.40
67515;BMP280;60646;55.802;37.032;2022-11-30T01:05:52;102192.94;;;-5.39
67515;BMP280;60646;55.802;37.032;2022-11-30T01:08:18;102191.88;;;-5.38
67515;BMP280;60646;55.802;37.032;2022-11-30T01:10:44;102195.06;;;-5.41
67515;BMP280;60646;55.802;37.032;2022-11-30T01:13:12;102201.22;;;-5.37
67515;BMP280;60646;55.802;37.032;2022-11-30T01:15:41;102203.97;;;-5.34
67515;BMP280;60646;55.802;37.032;2022-11-30T01:18:07;102184.91;;;-5.52
67515;BMP280;60646;55.802;37.032;2022-11-30T01:20:34;102206.53;;;-5.42
67515;BMP280;60646;55.802;37.032;2022-11-30T01:22:59;102173.22;;;-5.63
67515;BMP280;60646;55.802;37.032;2022-11-30T01:25:25;102186.09;;;-5.58
67515;BMP280;60646;55.802;37.032;2022-11-30T01:27:52;102186.09;;;-5.58
67515;BMP280;60646;55.802;37.032;2022-11-30T01:30:17;102185.63;;;-5.60
67515;BMP280;60646;55.802;37.032;2022-11-30T01:32:43;102205.75;;;-5.52
67515;BMP280;60646;55.802;37.032;2022-11-30T01:35:09;102173.22;;;-5.63
67515;BMP280;60646;55.802;37.032;2022-11-30T01:37:35;102179.34;;;-5.59
67515;BMP280;60646;55.802;37.032;2022-11-30T01:40:01;102151.53;;;-5.80
67515;BMP280;60646;55.802;37.032;2022-11-30T01:42:27;102181.34;;;-5.64
67515;BMP280;60646;55.802;37.032;2022-11-30T01:44:58;102181.34;;;-5.64
67515;BMP280;60646;55.802;37.032;2022-11-30T01:47:32;102191.91;;;-5.61
67515;BMP280;60646;55.802;37.032;2022-11-30T01:50:29;102175.94;;;-5.68
67515;BMP280;60646;55.802;37.032;2022-11-30T01:52:56;102169.81;;;-5.72
67515;BMP280;60646;55.802;37.032;2022-11-30T01:55:31;102163.06;;;-5.73
67515;BMP280;60646;55.802;37.032;2022-11-30T01:58:13;102189.97;;;-5.55
67515;BMP280;60646;55.802;37.032;2022-11-30T02:00:43;102179.97;;;-5.62
67515;BMP280;60646;55.802;37.032;2022-11-30T02:03:23;102162.94;;;-5.68
67515;BMP280;60646;55.802;37.032;2022-11-30T02:05:50;102193.19;;;-5.49
67515;BMP280;60646;55.802;37.032;2022-11-30T02:08:17;102165.09;;;-5.61
67515;BMP280;60646;55.802;37.032;2022-11-30T02:10:49;102165.00;;;-5.56
67515;BMP280;60646;55.802;37.032;2022-11-30T02:15:59;102183.25;;;-5.47
67515;BMP280;60646;55.802;37.032;2022-11-30T02:21:28;102168.00;;;-5.63
67515;BMP280;60646;55.802;37.032;2022-11-30T02:27:14;102176.91;;;-5.64
67515;BMP280;60646;55.802;37.032;2022-11-30T02:32:35;102173.47;;;-5.73
67515;BMP280;60646;55.802;37.032;2022-11-30T02:35:05;102159.47;;;-5.85
67515;BMP280;60646;55.802;37.032;2022-11-30T02:37:33;102164.41;;;-5.84
67515;BMP280;60646;55.802;37.032;2022-11-30T02:39:59;102161.13;;;-5.89
67515;BMP280;60646;55.802;37.032;2022-11-30T02:42:25;102156.25;;;-5.91
67515;BMP280;60646;55.802;37.032;2022-11-30T02:44:52;102158.53;;;-5.89
67515;BMP280;60646;55.802;37.032;2022-11-30T02:47:36;102169.47;;;-5.79
67515;BMP280;60646;55.802;37.032;2022-11-30T02:50:14;102169.47;;;-5.79
67515;BMP280;60646;55.802;37.032;2022-11-30T02:52:42;102152.41;;;-5.94
67515;BMP280;60646;55.802;37.032;2022-11-30T02:55:10;102180.94;;;-5.80
67515;BMP280;60646;55.802;37.032;2022-11-30T02:57:39;102152.22;;;-5.97
67515;BMP280;60646;55.802;37.032;2022-11-30T03:00:06;102162.97;;;-5.90
67515;BMP280;60646;55.802;37.032;2022-11-30T03:02:33;102161.44;;;-5.91
67515;BMP280;60646;55.802;37.032;2022-11-30T03:04:58;102179.41;;;-5.81
67515;BMP280;60646;55.802;37.032;2022-11-30T03:07:24;102165.69;;;-5.95
67515;BMP280;60646;55.802;37.032;2022-11-30T03:09:50;102140.91;;;-6.01
67515;BMP280;60646;55.802;37.032;2022-11-30T03:12:15;102165.88;;;-5.92
67515;BMP280;60646;55.802;37.032;2022-11-30T03:14:41;102164.94;;;-5.96
67515;BMP280;60646;55.802;37.032;2022-11-30T03:17:07;102168.78;;;-5.93
67515;BMP280;60646;55.802;37.032;2022-11-30T03:19:33;102153.78;;;-5.96
67515;BMP280;60646;55.802;37.032;2022-11-30T03:21:59;102160.69;;;-5.92
67515;BMP280;60646;55.802;37.032;2022-11-30T03:24:25;102185.69;;;-5.82
67515;BMP280;60646;55.802;37.032;2022-11-30T03:26:51;102161.44;;;-5.91
67515;BMP280;60646;55.802;37.032;2022-11-30T03:29:17;102156.06;;;-5.95
67515;BMP280;60646;55.802;37.032;2022-11-30T03:31:43;102170.00;;;-5.91
67515;BMP280;60646;55.802;37.032;2022-11-30T03:34:09;102151.75;;;-5.99
67515;BMP280;60646;55.802;37.032;2022-11-30T03:36:35;102154.69;;;-5.92
67515;BMP280;60646;55.802;37.032;2022-11-30T03:39:01;102156.66;;;-5.98
67515;BMP280;60646;55.802;37.032;2022-11-30T03:41:27;102151.16;;;-5.96
67515;BMP280;60646;55.802;37.032;2022-11-30T03:43:53;102149.91;;;-5.99
67515;BMP280;60646;55.802;37.032;2022-11-30T03:46:18;102174.19;;;-5.81
67515;BMP280;60646;55.802;37.032;2022-11-30T03:48:44;102174.53;;;-5.82
67515;BMP280;60646;55.802;37.032;2022-11-30T03:51:11;102165.88;;;-5.92
67515;BMP280;60646;55.802;37.032;2022-11-30T03:53:37;102171.25;;;-5.88
67515;BMP280;60646;55.802;37.032;2022-11-30T03:56:06;102177.06;;;-5.91
67515;BMP280;60646;55.802;37.032;2022-11-30T03:58:33;102173.50;;;-5.95
67515;BMP280;60646;55.802;37.032;2022-11-30T04:01:10;102174.59;;;-5.96
67515;BMP280;60646;55.802;37.032;2022-11-30T04:03:36;102180.38;;;-5.99
67515;BMP280;60646;55.802;37.032;2022-11-30T04:06:03;102152.91;;;-6.14
67515;BMP280;60646;55.802;37.032;2022-11-30T04:08:29;102156.56;;;-6.15
67515;BMP280;60646;55.802;37.032;2022-11-30T04:11:00;102174.19;;;-6.03
67515;BMP280;60646;55.802;37.032;2022-11-30T04:13:27;102172.66;;;-6.04
67515;BMP280;60646;55.802;37.032;2022-11-30T04:15:54;102160.97;;;-6.15
67515;BMP280;60646;55.802;37.032;2022-11-30T04:18:21;102169.75;;;-6.11
67515;BMP280;60646;55.802;37.032;2022-11-30T04:20:52;102173.75;;;-6.05
67515;BMP280;60646;55.802;37.032;2022-11-30T04:23:18;102148.09;;;-6.20
67515;BMP280;60646;55.802;37.032;2022-11-30T04:25:44;102149.63;;;-6.19
67515;BMP280;60646;55.802;37.032;2022-11-30T04:28:10;102157.88;;;-6.17
67515;BMP280;60646;55.802;37.032;2022-11-30T04:30:36;102145.34;;;-6.24
67515;BMP280;60646;55.802;37.032;2022-11-30T04:33:03;102167.47;;;-6.04
67515;BMP280;60646;55.802;37.032;2022-11-30T04:35:29;102159.44;;;-6.16
67515;BMP280;60646;55.802;37.032;2022-11-30T04:37:55;102165.41;;;-6.16
67515;BMP280;60646;55.802;37.032;2022-11-30T04:40:21;102169.06;;;-6.17
67515;BMP280;60646;55.802;37.032;2022-11-30T04:42:47;102179.09;;;-6.10
67515;BMP280;60646;55.802;37.032;2022-11-30T04:45:12;102156.13;;;-6.31
67515;BMP280;60646;55.802;37.032;2022-11-30T04:47:38;102175.66;;;-6.19
67515;BMP280;60646;55.802;37.032;2022-11-30T04:50:05;102164.13;;;-6.27
67515;BMP280;60646;55.802;37.032;2022-11-30T04:52:32;102182.78;;;-6.25
67515;BMP280;60646;55.802;37.032;2022-11-30T04:54:58;102173.88;;;-6.33
67515;BMP280;60646;55.802;37.032;2022-11-30T04:57:23;102164.66;;;-6.39
67515;BMP280;60646;55.802;37.032;2022-11-30T04:59:49;102164.66;;;-6.39
67515;BMP280;60646;55.802;37.032;2022-11-30T05:02:15;102160.13;;;-6.47
67515;BMP280;60646;55.802;37.032;2022-11-30T05:04:41;102164.28;;;-6.46
67515;BMP280;60646;55.802;37.032;2022-11-30T05:07:07;102164.16;;;-6.41
67515;BMP280;60646;55.802;37.032;2022-11-30T05:09:33;102169.69;;;-6.42
67515;BMP280;60646;55.802;37.032;2022-11-30T05:11:59;102164.72;;;-6.44
67515;BMP280;60646;55.802;37.032;2022-11-30T05:14:24;102160.13;;;-6.47
67515;BMP280;60646;55.802;37.032;2022-11-30T05:16:50;102170.91;;;-6.40
67515;BMP280;60646;55.802;37.032;2022-11-30T05:19:16;102164.16;;;-6.41
67515;BMP280;60646;55.802;37.032;2022-11-30T05:21:42;102177.97;;;-6.32
67515;BMP280;60646;55.802;37.032;2022-11-30T05:24:09;102174.91;;;-6.34
67515;BMP280;60646;55.802;37.032;2022-11-30T05:26:35;102188.59;;;-6.28
67515;BMP280;60646;55.802;37.032;2022-11-30T05:29:02;102174.56;;;-6.41
67515;BMP280;60646;55.802;37.032;2022-11-30T05:31:28;102175.97;;;-6.35
67515;BMP280;60646;55.802;37.032;2022-11-30T05:33:54;102181.47;;;-6.36
67515;BMP280;60646;55.802;37.032;2022-11-30T05:36:20;102167.34;;;-6.44
67515;BMP280;60646;55.802;37.032;2022-11-30T05:38:46;102193.03;;;-6.28
67515;BMP280;60646;55.802;37.032;2022-11-30T05:41:12;102184.38;;;-6.38
67515;BMP280;60646;55.802;37.032;2022-11-30T05:43:38;102202.81;;;-6.25
67515;BMP280;60646;55.802;37.032;2022-11-30T05:46:06;102199.94;;;-6.24
67515;BMP280;60646;55.802;37.032;2022-11-30T05:48:32;102186.88;;;-6.33
67515;BMP280;60646;55.802;37.032;2022-11-30T05:51:09;102190.88;;;-6.26
67515;BMP280;60646;55.802;37.032;2022-11-30T05:53:35;102184.38;;;-6.38
67515;BMP280;60646;55.802;37.032;2022-11-30T05:56:06;102194.56;;;-6.27
67515;BMP280;60646;55.802;37.032;2022-11-30T05:58:32;102195.63;;;-6.28
67515;BMP280;60646;55.802;37.032;2022-11-30T06:00:58;102183.78;;;-6.35
67515;BMP280;60646;55.802;37.032;2022-11-30T06:03:24;102213.78;;;-6.15
67515;BMP280;60646;55.802;37.032;2022-11-30T06:05:50;102206.06;;;-6.20
67515;BMP280;60646;55.802;37.032;2022-11-30T06:08:17;102200.09;;;-6.20
67515;BMP280;60646;55.802;37.032;2022-11-30T06:10:43;102212.81;;;-6.19
67515;BMP280;60646;55.802;37.032;2022-11-30T06:13:08;102213.97;;;-6.11
67515;BMP280;60646;55.802;37.032;2022-11-30T06:15:43;102195.03;;;-6.25
67515;BMP280;60646;55.802;37.032;2022-11-30T06:18:12;102198.13;;;-6.23
67515;BMP280;60646;55.802;37.032;2022-11-30T06:20:38;102222.69;;;-6.07
67515;BMP280;60646;55.802;37.032;2022-11-30T06:23:04;102194.44;;;-6.22
67515;BMP280;60646;55.802;37.032;2022-11-30T06:25:30;102210.88;;;-6.13
67515;BMP280;60646;55.802;37.032;2022-11-30T06:27:56;102205.66;;;-6.13
67515;BMP280;60646;55.802;37.032;2022-11-30T06:30:22;102201.03;;;-6.16
67515;BMP280;60646;55.802;37.032;2022-11-30T06:32:50;102218.94;;;-6.01
67515;BMP280;60646;55.802;37.032;2022-11-30T06:35:17;102213.53;;;-6.05
67515;BMP280;60646;55.802;37.032;2022-11-30T06:37:43;102208.91;;;-6.08
67515;BMP280;60646;55.802;37.032;2022-11-30T06:40:11;102212.16;;;-6.02
67515;BMP280;60646;55.802;37.032;2022-11-30T06:42:38;102213.13;;;-5.98
67515;BMP280;60646;55.802;37.032;2022-11-30T06:45:05;102230.03;;;-5.87
67515;BMP280;60646;55.802;37.032;2022-11-30T06:47:31;102226.84;;;-5.84
67515;BMP280;60646;55.802;37.032;2022-11-30T06:49:57;102207.97;;;-5.89
67515;BMP280;60646;55.802;37.032;2022-11-30T06:52:23;102203.06;;;-5.91
67515;BMP280;60646;55.802;37.032;2022-11-30T06:54:49;102229.19;;;-5.74
67515;BMP280;60646;55.802;37.032;2022-11-30T06:57:15;102229.19;;;-5.74
67515;BMP280;60646;55.802;37.032;2022-11-30T06:59:41;102222.66;;;-5.71
67515;BMP280;60646;55.802;37.032;2022-11-30T07:02:10;102228.00;;;-5.68
67515;BMP280;60646;55.802;37.032;2022-11-30T07:04:36;102228.34;;;-5.61
67515;BMP280;60646;55.802;37.032;2022-11-30T07:07:02;102223.50;;;-5.54
67515;BMP280;60646;55.802;37.032;2022-11-30T07:09:28;102234.25;;;-5.46
67515;BMP280;60646;55.802;37.032;2022-11-30T07:11:53;102216.94;;;-5.51
67515;BMP280;60646;55.802;37.032;2022-11-30T07:14:20;102216.97;;;-5.42
67515;BMP280;60646;55.802;37.032;2022-11-30T07:16:46;102215.78;;;-5.36
67515;BMP280;60646;55.802;37.032;2022-11-30T07:19:11;102216.72;;;-5.32
67515;BMP280;60646;55.802;37.032;2022-11-30T07:21:37;102233.91;;;-5.23
67515;BMP280;60646;55.802;37.032;2022-11-30T07:24:03;102244.19;;;-5.09
67515;BMP280;60646;55.802;37.032;2022-11-30T07:26:47;102232.84;;;-5.13
67515;BMP280;60646;55.802;37.032;2022-11-30T07:29:12;102254.09;;;-4.89
67515;BMP280;60646;55.802;37.032;2022-11-30T07:31:38;102245.22;;;-4.88
67515;BMP280;60646;55.802;37.032;2022-11-30T07:34:06;102247.06;;;-4.80
67515;BMP280;60646;55.802;37.032;2022-11-30T07:36:34;102245.84;;;-4.74
67515;BMP280;60646;55.802;37.032;2022-11-30T07:39:00;102244.19;;;-4.69
67515;BMP280;60646;55.802;37.032;2022-11-30T07:41:26;102253.38;;;-4.55
67515;BMP280;60646;55.802;37.032;2022-11-30T07:43:51;102252.03;;;-4.52
67515;BMP280;60646;55.802;37.032;2022-11-30T07:46:18;102259.97;;;-4.40
67515;BMP280;60646;55.802;37.032;2022-11-30T07:48:44;102257.72;;;-4.33
67515;BMP280;60646;55.802;37.032;2022-11-30T07:51:13;102250.97;;;-4.34
67515;BMP280;60646;55.802;37.032;2022-11-30T07:53:39;102240.50;;;-4.25
67515;BMP280;60646;55.802;37.032;2022-11-30T07:56:07;102251.72;;;-4.08
67515;BMP280;60646;55.802;37.032;2022-11-30T07:58:34;102244.34;;;-4.06
67515;BMP280;60646;55.802;37.032;2022-11-30T08:01:04;102236.34;;;-4.01
67515;BMP280;60646;55.802;37.032;2022-11-30T08:03:31;102249.53;;;-3.89
67515;BMP280;60646;55.802;37.032;2022-11-30T08:06:01;102246.91;;;-3.80
67515;BMP280;60646;55.802;37.032;2022-11-30T08:08:31;102249.50;;;-3.71
67515;BMP280;60646;55.802;37.032;2022-11-30T08:10:57;102252.38;;;-3.56
67515;BMP280;60646;55.802;37.032;2022-11-30T08:13:23;102245.75;;;-3.53
67515;BMP280;60646;55.802;37.032;2022-11-30T08:15:49;102254.47;;;-3.40
67515;BMP280;60646;55.802;37.032;2022-11-30T08:18:18;102256.44;;;-3.29
67515;BMP280;60646;55.802;37.032;2022-11-30T08:20:44;102243.47;;;-3.25
67515;BMP280;60646;55.802;37.032;2022-11-30T08:23:15;102232.13;;;-3.21
67515;BMP280;60646;55.802;37.032;2022-11-30T08:25:41;102240.19;;;-3.05
67515;BMP280;60646;55.802;37.032;2022-11-30T08:28:07;102242.72;;;-2.96
67515;BMP280;60646;55.802;37.032;2022-11-30T08:30:36;102231.94;;;-2.95
67515;BMP280;60646;55.802;37.032;2022-11-30T08:33:05;102225.03;;;-2.91
67515;BMP280;60646;55.802;37.032;2022-11-30T08:36:06;102238.09;;;-2.70
67515;BMP280;60646;55.802;37.032;2022-11-30T08:38:32;102225.97;;;-2.75
67515;BMP280;60646;55.802;37.032;2022-11-30T08:40:58;102216.72;;;-2.72
67515;BMP280;60646;55.802;37.032;2022-11-30T08:43:24;102216.81;;;-2.60
67515;BMP280;60646;55.802;37.032;2022-11-30T08:45:49;102218.13;;;-2.54
67515;BMP280;60646;55.802;37.032;2022-11-30T08:48:15;102227.53;;;-2.41
67515;BMP280;60646;55.802;37.032;2022-11-30T08:50:41;102231.59;;;-2.31
67515;BMP280;60646;55.802;37.032;2022-11-30T08:53:07;102221.03;;;-2.35
67515;BMP280;60646;55.802;37.032;2022-11-30T08:55:32;102233.97;;;-2.17
67515;BMP280;60646;55.802;37.032;2022-11-30T08:57:58;102223.94;;;-2.15
67515;BMP280;60646;55.802;37.032;2022-11-30T09:00:24;102216.66;;;-2.10
67515;BMP280;60646;55.802;37.032;2022-11-30T09:02:50;102217.53;;;-2.06
67515;BMP280;60646;55.802;37.032;2022-11-30T09:05:15;102210.22;;;-2.00
67515;BMP280;60646;55.802;37.032;2022-11-30T09:07:41;102208.50;;;-1.96
67515;BMP280;60646;55.802;37.032;2022-11-30T09:10:08;102205.31;;;-1.90
67515;BMP280;60646;55.802;37.032;2022-11-30T09:12:36;102213.97;;;-1.77
67515;BMP280;60646;55.802;37.032;2022-11-30T09:15:03;102204.16;;;-1.80
67515;BMP280;60646;55.802;37.032;2022-11-30T09:17:57;102221.63;;;-1.60
67515;BMP280;60646;55.802;37.032;2022-11-30T09:21:19;102220.66;;;-1.55
67515;BMP280;60646;55.802;37.032;2022-11-30T09:23:46;102219.22;;;-1.53
67515;BMP280;60646;55.802;37.032;2022-11-30T09:26:14;102216.47;;;-1.44
67515;BMP280;60646;55.802;37.032;2022-11-30T09:28:45;102224.91;;;-1.39
67515;BMP280;60646;55.802;37.032;2022-11-30T09:31:15;102221.00;;;-1.33
67515;BMP280;60646;55.802;37.032;2022-11-30T09:33:41;102218.16;;;-1.27
67515;BMP280;60646;55.802;37.032;2022-11-30T10:16:44;102219.56;;;-0.50
67515;BMP280;60646;55.802;37.032;2022-11-30T10:22:14;102217.63;;;-0.37
67515;BMP280;60646;55.802;37.032;2022-11-30T10:25:22;102216.63;;;-0.33
67515;BMP280;60646;55.802;37.032;2022-11-30T10:27:50;102214.53;;;-0.27
67515;BMP280;60646;55.802;37.032;2022-11-30T10:30:19;102215.38;;;-0.23
67515;BMP280;60646;55.802;37.032;2022-11-30T10:32:51;102206.50;;;-0.19
67515;BMP280;60646;55.802;37.032;2022-11-30T10:35:22;102205.72;;;-0.19
67515;BMP280;60646;55.802;37.032;2022-11-30T10:37:50;102213.84;;;-0.09
67515;BMP280;60646;55.802;37.032;2022-11-30T10:43:13;102211.81;;;0.00
67515;BMP280;60646;55.802;37.032;2022-11-30T10:45:45;102212.66;;;0.05
67515;BMP280;60646;55.802;37.032;2022-11-30T10:50:41;102194.19;;;0.01
67515;BMP280;60646;55.802;37.032;2022-11-30T10:53:11;102208.09;;;0.17
67515;BMP280;60646;55.802;37.032;2022-11-30T10:55:54;102192.94;;;0.11
67515;BMP280;60646;55.802;37.032;2022-11-30T10:58:30;102210.56;;;0.26
67515;BMP280;60646;55.802;37.032;2022-11-30T11:01:07;102198.59;;;0.28
67515;BMP280;60646;55.802;37.032;2022-11-30T11:03:34;102188.59;;;0.18
67515;BMP280;60646;55.802;37.032;2022-11-30T11:08:37;102195.69;;;0.33
67515;BMP280;60646;55.802;37.032;2022-11-30T11:11:02;102185.81;;;0.27
67515;BMP280;60646;55.802;37.032;2022-11-30T11:13:40;102198.88;;;0.42
67515;BMP280;60646;55.802;37.032;2022-11-30T11:16:09;102195.16;;;0.43
67515;BMP280;60646;55.802;37.032;2022-11-30T11:18:37;102199.72;;;0.46
67515;BMP280;60646;55.802;37.032;2022-11-30T11:21:17;102177.00;;;0.38
67515;BMP280;60646;55.802;37.032;2022-11-30T11:23:46;102193.44;;;0.51
67515;BMP280;60646;55.802;37.032;2022-11-30T11:26:22;102188.53;;;0.50
67515;BMP280;60646;55.802;37.032;2022-11-30T11:28:50;102179.53;;;0.51
67515;BMP280;60646;55.802;37.032;2022-11-30T11:31:29;102197.41;;;0.61
67515;BMP280;60646;55.802;37.032;2022-11-30T11:33:57;102189.50;;;0.61
67515;BMP280;60646;55.802;37.032;2022-11-30T11:36:30;102202.41;;;0.66
67515;BMP280;60646;55.802;37.032;2022-11-30T11:38:57;102199.34;;;0.64
67515;BMP280;60646;55.802;37.032;2022-11-30T11:41:34;102177.72;;;0.55
67515;BMP280;60646;55.802;37.032;2022-11-30T11:46:37;102187.31;;;0.63
67515;BMP280;60646;55.802;37.032;2022-11-30T11:49:18;102181.34;;;0.66
67515;BMP280;60646;55.802;37.032;2022-11-30T11:51:45;102200.25;;;0.71
67515;BMP280;60646;55.802;37.032;2022-11-30T11:56:36;102180.59;;;0.65
67515;BMP280;60646;55.802;37.032;2022-11-30T12:04:19;102187.50;;;0.73
67515;BMP280;60646;55.802;37.032;2022-11-30T12:06:49;102188.22;;;0.70
67515;BMP280;60646;55.802;37.032;2022-11-30T12:09:25;102180.66;;;0.69
67515;BMP280;60646;55.802;37.032;2022-11-30T12:11:52;102185.31;;;0.75
67515;BMP280;60646;55.802;37.032;2022-11-30T12:14:18;102182.13;;;0.66
67515;BMP280;60646;55.802;37.032;2022-11-30T12:17:14;102191.34;;;0.76
67515;BMP280;60646;55.802;37.032;2022-11-30T12:25:26;102192.78;;;0.73
67515;BMP280;60646;55.802;37.032;2022-11-30T12:28:10;102196.09;;;0.70
67515;BMP280;60646;55.802;37.032;2022-11-30T12:31:11;102189.50;;;0.61
67515;BMP280;60646;55.802;37.032;2022-11-30T12:34:05;102189.56;;;0.64
67515;BMP280;60646;55.802;37.032;2022-11-30T12:37:09;102198.59;;;0.63
67515;BMP280;60646;55.802;37.032;2022-11-30T12:48:22;102210.31;;;0.50
67515;BMP280;60646;55.802;37.032;2022-11-30T12:56:32;102194.03;;;0.25
67515;BMP280;60646;55.802;37.032;2022-11-30T13:04:42;102210.06;;;0.20
67515;BMP280;60646;55.802;37.032;2022-11-30T13:07:33;102208.78;;;0.14
67515;BMP280;60646;55.802;37.032;2022-11-30T13:12:42;102212.34;;;0.06
67515;BMP280;60646;55.802;37.032;2022-11-30T13:15:18;102211.09;;;0.00
67515;BMP280;60646;55.802;37.032;2022-11-30T13:17:46;102202.00;;;-0.18
67515;BMP280;60646;55.802;37.032;2022-11-30T13:23:09;102201.13;;;-0.22
67515;BMP280;60646;55.802;37.032;2022-11-30T13:25:46;102203.03;;;-0.23
67515;BMP280;60646;55.802;37.032;2022-11-30T13:31:24;102210.78;;;-0.26
67515;BMP280;60646;55.802;37.032;2022-11-30T13:41:43;102207.84;;;-0.53
67515;BMP280;60646;55.802;37.032;2022-11-30T13:47:25;102222.06;;;-0.54
67515;BMP280;60646;55.802;37.032;2022-11-30T13:49:57;102215.97;;;-0.58
67515;BMP280;60646;55.802;37.032;2022-11-30T13:55:50;102218.72;;;-0.66
67515;BMP280;60646;55.802;37.032;2022-11-30T13:58:18;102193.09;;;-0.85
67515;BMP280;60646;55.802;37.032;2022-11-30T14:00:46;102213.94;;;-0.76
67515;BMP280;60646;55.802;37.032;2022-11-30T14:05:51;102192.38;;;-0.98
67515;BMP280;60646;55.802;37.032;2022-11-30T14:23:26;102206.09;;;-1.16
67515;BMP280;60646;55.802;37.032;2022-11-30T14:25:56;102206.31;;;-1.21
67515;BMP280;60646;55.802;37.032;2022-11-30T14:31:20;102194.09;;;-1.29
67515;BMP280;60646;55.802;37.032;2022-11-30T14:36:15;102201.06;;;-1.34
67515;BMP280;60646;55.802;37.032;2022-11-30T14:38:41;102185.13;;;-1.41
67515;BMP280;60646;55.802;37.032;2022-11-30T14:41:23;102193.13;;;-1.37
67515;BMP280;60646;55.802;37.032;2022-11-30T14:46:23;102176.41;;;-1.57
67515;BMP280;60646;55.802;37.032;2022-11-30T14:49:12;102187.09;;;-1.50
67515;BMP280;60646;55.802;37.032;2022-11-30T14:51:49;102200.47;;;-1.55
67515;BMP280;60646;55.802;37.032;2022-11-30T14:54:41;102198.91;;;-1.56
67515;BMP280;60646;55.802;37.032;2022-11-30T14:59:53;102195.97;;;-1.66
67515;BMP280;60646;55.802;37.032;2022-11-30T15:04:55;102189.41;;;-1.72
67515;BMP280;60646;55.802;37.032;2022-11-30T15:07:23;102183.88;;;-1.83
67515;BMP280;60646;55.802;37.032;2022-11-30T15:09:55;102185.13;;;-1.89
67515;BMP280;60646;55.802;37.032;2022-11-30T15:12:23;102206.78;;;-1.80
67515;BMP280;60646;55.802;37.032;2022-11-30T15:15:02;102211.25;;;-1.81
67515;BMP280;60646;55.802;37.032;2022-11-30T15:17:43;102207.16;;;-1.90
67515;BMP280;60646;55.802;37.032;2022-11-30T15:20:21;102207.38;;;-1.95
67515;BMP280;60646;55.802;37.032;2022-11-30T15:22:47;102212.50;;;-1.99
67515;BMP280;60646;55.802;37.032;2022-11-30T15:25:13;102215.22;;;-1.95
67515;BMP280;60646;55.802;37.032;2022-11-30T15:27:39;102208.69;;;-2.01
67515;BMP280;60646;55.802;37.032;2022-11-30T15:30:05;102202.22;;;-2.16
67515;BMP280;60646;55.802;37.032;2022-11-30T15:32:31;102204.28;;;-2.22
67515;BMP280;60646;55.802;37.032;2022-11-30T15:34:58;102215.41;;;-2.25
67515;BMP280;60646;55.802;37.032;2022-11-30T15:37:38;102216.06;;;-2.28
67515;BMP280;60646;55.802;37.032;2022-11-30T15:40:33;102211.41;;;-2.43
67515;BMP280;60646;55.802;37.032;2022-11-30T15:43:00;102207.03;;;-2.51
67515;BMP280;60646;55.802;37.032;2022-11-30T15:45:31;102219.00;;;-2.50
67515;BMP280;60646;55.802;37.032;2022-11-30T15:47:59;102217.34;;;-2.54
67515;BMP280;60646;55.802;37.032;2022-11-30T15:52:58;102219.84;;;-2.58
67515;BMP280;60646;55.802;37.032;2022-11-30T16:01:02;102213.13;;;-2.59
67515;BMP280;60646;55.802;37.032;2022-11-30T16:06:25;102202.34;;;-2.66
67515;BMP280;60646;55.802;37.032;2022-11-30T16:08:51;102212.66;;;-2.61
67515;BMP280;60646;55.802;37.032;2022-11-30T16:11:36;102198.09;;;-2.71
67515;BMP280;60646;55.802;37.032;2022-11-30T16:14:02;102207.28;;;-2.65
67515;BMP280;60646;55.802;37.032;2022-11-30T16:16:30;102195.16;;;-2.69
67515;BMP280;60646;55.802;37.032;2022-11-30T16:18:57;102187.63;;;-2.71
67515;BMP280;60646;55.802;37.032;2022-11-30T16:21:22;102198.34;;;-2.64
67515;BMP280;60646;55.802;37.032;2022-11-30T16:23:48;102204.66;;;-2.65
67515;BMP280;60646;55.802;37.032;2022-11-30T16:26:16;102187.06;;;-2.76
67515;BMP280;60646;55.802;37.032;2022-11-30T16:28:42;102181.50;;;-2.75
67515;BMP280;60646;55.802;37.032;2022-11-30T16:31:14;102202.66;;;-2.68
67515;BMP280;60646;55.802;37.032;2022-11-30T16:33:40;102203.31;;;-2.71
67515;BMP280;60646;55.802;37.032;2022-11-30T16:36:08;102196.44;;;-2.75
67515;BMP280;60646;55.802;37.032;2022-11-30T16:38:34;102187.25;;;-2.81
67515;BMP280;60646;55.802;37.032;2022-11-30T16:41:22;102203.19;;;-2.74
67515;BMP280;60646;55.802;37.032;2022-11-30T16:43:50;102195.44;;;-2.83